Mc Caulley, Texas
Current Conditions -  °F | °C
As of 8:15 PM on Monday 22 Dec 2014 (Local Time) from KSWW Reporting Station
Clear Clear  
Wind Chill: 52°   Ceiling: Unl
Heat Index: 52°   Visibility: 10mi
Dew Point: 34°   Wind: 5mph
Humidity: 51%   Direction: 10°N
Pressure: 29.73"   Gusts: NA
Location:  32.7942°N, 100.223°W
Report Text: KSWW 230215Z AUTO 01004KT 10SM CLR 11/01 A2973 RMK AO2 LTG DSNT W T01100012
Loading
Personal Weather Stations






























Interactive Weather Map New forecast layout! Learn more

10-Day Weather Forecast

Advertisements
Track Severe Weather on mobile